Aeroporto :
LOGIN :

Iscrizione | Disclaimer

   EN    FR    IT 

 










Sommario :    VFR   VFR Marginale   IFR   IFR Intensivo   IFR Molto Intensivo
Visibilità : 
Base nubi : 
>= 8 km
>= 3000ft
5 / 8 km
1000 / 3000 ft
1500m / 5 km
500 / 1000 ft
800 / 1500m
200 / 500 ft
< 800m
< 200 ft
Simboli :   Temporali  Nebbia  Neve Forte  Precipitazioni Forti  Vento > 20 kt
SIGMETs :   Varie  Temporali  Ghiacco  Turbolenza  Onda orograficha  Ceneri Vulcaniche






- Altitudine del aeroporto : 2001 ft
- Codice IATA : MAD


LEMD - Madrid

ULTIMO METAR :
  • 221500Z 18010G20KT 150V220 9000 SCT008 BKN014 BKN022 12/11 Q0992 R88/29//95 NOSIG

METARs OBSOLETI :
  • 221430Z 18012KT 120V200 5000 BR SCT009 BKN019 BKN035 12/11 Q0992 R88/29//95 NOSIG
  • 221400Z 18012KT 150V210 9999 -DZ SCT008 BKN018 BKN024 11/10 Q0992 R88/29//95 NOSIG
  • 221330Z 17013KT 5000 RA BR SCT008 BKN018 BKN028 11/10 Q0993 R88/29//95 NOSIG
  • 221300Z 17014KT 5000 -DZ BR SCT008 BKN018 BKN030 11/10 Q0994 R88/29//95 NOSIG
  • 221232Z 17014G28KT 110V210 5000 R18R/1100 R18L/P2000 RA BR SCT008 BKN015 BKN030 10/09 Q0995 R88/29//95 NOSIG

TAF TAF LEMD
Valido dal 22 a 12 ore il 23 a 18 ore UTC


221100Z 2212/2318 20011KT 9999 SCT035 BKN045 TX13/2215Z TN06/2305Z
PROB40
TEMPO 2212/2303 2000 RADZ BR BKN009
PROB40
TEMPO 2212/2221 22015G30KT
PROB40
TEMPO 2221/2312 25015G25KT
BECMG 2310/2312 28010KT



MetMap, La meteo Aeronautica in un colpo d'occhio ! - Copyright ORBIFLY Dicembre 2007 - Disclaimer

ORBIFLY MET'MAP TEAM :

Programmazione e sviluppo : Alexandra Zaïnal
Concezione e sviluppo : Baudouin d'Aumeries
Co-Programmazione e sviluppo : Marc-Olivier Méhu
Supporto tecnico e logistico : Manuel Goepfert
Aiuto per la traduzione : Arnaldo La Scala

Contatto : metmap@orbifly.com




FONTI E CREDITI :

   NOAA